Canadian Transport — VCLX — position and weather

sailwx.info

Track history (hours):
 
Tides and Currents Weather Stations Pressure Air Temp Water Temp Dewpoint Dewpoint Depression Visibility Wind Speed Wind Dir Waves Ship Positions

Canadian Transport

Last reported at 2018-Jun-19 02:08 UTC. Time now 2018-Jun-22 03:46 UTC.
Position N 45°28' W 083°16'.

Length 223 m; draft 8.1 m.

Type: Cargo ship. MMSI: 316001698.

Date/timePositionNaut miles runAvg speedWind from/ knotsBaromVisibWave heightAir tempDewpointWater temp
2018-Jun-19 02:08N 45°28' W 083°16'211.9
2018-Jun-19 01:59N 45°30' W 083°18'358 9.7
2018-Jun-17 13:13N 47°00' W 091°38'1 7.0
2018-Jun-17 13:00N 47°01' W 091°40'0 0.6
2018-Jun-17 12:29N 47°01' W 091°40'0 0.0
2018-Jun-17 07:17N 47°01' W 091°40'0 0.0
2018-Jun-17 04:47N 47°01' W 091°40'0 0.0
2018-Jun-16 22:32N 47°01' W 091°40'0 1.4
2018-Jun-16 22:31N 47°01' W 091°40'1 1.1
2018-Jun-16 21:53N 47°00' W 091°39'0 0.1
2018-Jun-16 21:27N 47°00' W 091°39'0 0.1
2018-Jun-16 21:00N 47°00' W 091°39'0 0.3
2018-Jun-16 20:31N 47°01' W 091°39'0 0.1
2018-Jun-16 20:00N 47°01' W 091°39'0 0.2
2018-Jun-16 19:30N 47°01' W 091°39'0 0.1
2018-Jun-16 17:50N 47°00' W 091°39'0 0.1
2018-Jun-16 17:30N 47°00' W 091°39'0 0.1
2018-Jun-16 17:00N 47°00' W 091°39'0 0.0
2018-Jun-16 16:30N 47°00' W 091°39'0 0.1
2018-Jun-16 16:00N 47°00' W 091°39'0 0.1
2018-Jun-16 15:21N 47°00' W 091°39'303 8.8
2018-Jun-15 04:47N 45°51' W 084°32'510.6
2018-Jun-15 04:18N 45°50' W 084°39'311.7
2018-Jun-15 04:01N 45°49' W 084°44'611.8
2018-Jun-15 03:30N 45°49' W 084°52'612.0
2018-Jun-15 03:00N 45°50' W 085°01'510.6
2018-Jun-15 02:30N 45°49' W 085°08'5 9.5
2018-Jun-15 02:00N 45°44' W 085°11'712.1
2018-Jun-15 01:27N 45°39' W 085°16'612.2
2018-Jun-15 01:00N 45°34' W 085°21'612.5
2018-Jun-15 00:29N 45°29' W 085°27'612.5
2018-Jun-14 23:58N 45°24' W 085°32'712.4
2018-Jun-14 23:26N 45°19' W 085°38'612.4
2018-Jun-14 22:58N 45°14' W 085°43'612.5
2018-Jun-14 22:29N 45°09' W 085°48'  
2018-Jun-12 10:04N 45°26' W 086°12'211.9
2018-Jun-12 09:53N 45°29' W 086°11'611.9
2018-Jun-12 09:24N 45°34' W 086°09'711.4
2018-Jun-12 08:47N 45°41' W 086°06'611.7
2018-Jun-12 08:16N 45°44' W 085°59'311.8
2018-Jun-12 08:01N 45°45' W 085°55'611.7
2018-Jun-12 07:30N 45°48' W 085°48'611.7
2018-Jun-12 07:00N 45°51' W 085°40'611.7
2018-Jun-12 06:30N 45°54' W 085°33'611.7
2018-Jun-12 06:00N 45°53' W 085°24'611.9
2018-Jun-12 05:30N 45°53' W 085°16'612.0
2018-Jun-12 05:00N 45°52' W 085°08'612.0
2018-Jun-12 04:30N 45°51' W 084°59'612.0
2018-Jun-12 04:00N 45°50' W 084°50'612.0
2018-Jun-12 03:30N 45°49' W 084°42'612.0
2018-Jun-12 03:00N 45°45' W 084°35'611.9
2018-Jun-12 02:29N 45°42' W 084°27'2611.8
2018-Jun-12 00:18N 45°33' W 083°53'412.1
2018-Jun-12 00:00N 45°32' W 083°48'713.8
2018-Jun-11 23:30N 45°29' W 083°39'510.2
2018-Jun-11 23:00N 45°27' W 083°32'611.9
2018-Jun-11 22:29N 45°24' W 083°25'  
Track history (hours):
 
Tides and Currents Weather Stations Pressure Air Temp Water Temp Dewpoint Dewpoint Depression Visibility Wind Speed Wind Dir Waves Ship Positions

Canadian Transport

Last reported at 2018-Jun-19 02:08 UTC. Time now 2018-Jun-22 03:46 UTC.
Position N 45°28' W 083°16'.

Length 223 m; draft 8.1 m.

Type: Cargo ship. MMSI: 316001698.

Date/timePositionNaut miles runAvg speedWind from/ knotsBaromVisibWave heightAir tempDewpointWater temp
2018-Jun-19 02:08N 45°28' W 083°16'211.9
2018-Jun-19 01:59N 45°30' W 083°18'358 9.7
2018-Jun-17 13:13N 47°00' W 091°38'1 7.0
2018-Jun-17 13:00N 47°01' W 091°40'0 0.6
2018-Jun-17 12:29N 47°01' W 091°40'0 0.0
2018-Jun-17 07:17N 47°01' W 091°40'0 0.0
2018-Jun-17 04:47N 47°01' W 091°40'0 0.0
2018-Jun-16 22:32N 47°01' W 091°40'0 1.4
2018-Jun-16 22:31N 47°01' W 091°40'1 1.1
2018-Jun-16 21:53N 47°00' W 091°39'0 0.1
2018-Jun-16 21:27N 47°00' W 091°39'0 0.1
2018-Jun-16 21:00N 47°00' W 091°39'0 0.3
2018-Jun-16 20:31N 47°01' W 091°39'0 0.1
2018-Jun-16 20:00N 47°01' W 091°39'0 0.2
2018-Jun-16 19:30N 47°01' W 091°39'0 0.1
2018-Jun-16 17:50N 47°00' W 091°39'0 0.1
2018-Jun-16 17:30N 47°00' W 091°39'0 0.1
2018-Jun-16 17:00N 47°00' W 091°39'0 0.0
2018-Jun-16 16:30N 47°00' W 091°39'0 0.1
2018-Jun-16 16:00N 47°00' W 091°39'0 0.1
2018-Jun-16 15:21N 47°00' W 091°39'303 8.8
2018-Jun-15 04:47N 45°51' W 084°32'510.6
2018-Jun-15 04:18N 45°50' W 084°39'311.7
2018-Jun-15 04:01N 45°49' W 084°44'611.8
2018-Jun-15 03:30N 45°49' W 084°52'612.0
2018-Jun-15 03:00N 45°50' W 085°01'510.6
2018-Jun-15 02:30N 45°49' W 085°08'5 9.5
2018-Jun-15 02:00N 45°44' W 085°11'712.1
2018-Jun-15 01:27N 45°39' W 085°16'612.2
2018-Jun-15 01:00N 45°34' W 085°21'612.5
2018-Jun-15 00:29N 45°29' W 085°27'612.5
2018-Jun-14 23:58N 45°24' W 085°32'712.4
2018-Jun-14 23:26N 45°19' W 085°38'612.4
2018-Jun-14 22:58N 45°14' W 085°43'612.5
2018-Jun-14 22:29N 45°09' W 085°48'  
2018-Jun-12 10:04N 45°26' W 086°12'211.9
2018-Jun-12 09:53N 45°29' W 086°11'611.9
2018-Jun-12 09:24N 45°34' W 086°09'711.4
2018-Jun-12 08:47N 45°41' W 086°06'611.7
2018-Jun-12 08:16N 45°44' W 085°59'311.8
2018-Jun-12 08:01N 45°45' W 085°55'611.7
2018-Jun-12 07:30N 45°48' W 085°48'611.7
2018-Jun-12 07:00N 45°51' W 085°40'611.7
2018-Jun-12 06:30N 45°54' W 085°33'611.7
2018-Jun-12 06:00N 45°53' W 085°24'611.9
2018-Jun-12 05:30N 45°53' W 085°16'612.0
2018-Jun-12 05:00N 45°52' W 085°08'612.0
2018-Jun-12 04:30N 45°51' W 084°59'612.0
2018-Jun-12 04:00N 45°50' W 084°50'612.0
2018-Jun-12 03:30N 45°49' W 084°42'612.0
2018-Jun-12 03:00N 45°45' W 084°35'611.9
2018-Jun-12 02:29N 45°42' W 084°27'2611.8
2018-Jun-12 00:18N 45°33' W 083°53'412.1
2018-Jun-12 00:00N 45°32' W 083°48'713.8
2018-Jun-11 23:30N 45°29' W 083°39'510.2
2018-Jun-11 23:00N 45°27' W 083°32'611.9
2018-Jun-11 22:29N 45°24' W 083°25'  

Dump ship's entire track history